Dewees Island, South Carolina
Current Conditions -  °F | °C
As of 9:35 PM on Tuesday 25 Nov 2014 (Local Time) from KLRO Reporting Station
Overcast Overcast  
Wind Chill: 17°   Ceiling: 600
Heat Index: 17°   Visibility: 4mi
Dew Point: 17°   Wind: 6mph
Humidity: 100%   Direction: 30°NNE
Pressure: 29.97"   Gusts: NA
Location:  32.8046°N, 79.7534°W
Report Text: KLRO 260235Z AUTO 03005KT 4SM BKN006 OVC011 17/17 A2997 RMK AO2 PWINO PNO
Loading
Personal Weather Stations






























Interactive Weather Map New forecast layout! Learn more

10-Day Weather Forecast

Advertisements
Track Severe Weather on mobile